»·PEaware :: N642SP KLGB-KPOC

N642SP :: KLGB-KPOC

FLIGHT INFORMATION

Flight Status: Arrived
Operator: Privately registered:
United States
More flights under this callsign
Pilot: Wes T. (5776)
Aircraft: CESSNA 172 SKYHAWK
(C172)
More flights by this aircraft type
Origin: KLGB Long Beach
United States
Destination: KPOC Brackett
United States
More flights between these airports :: More routes between these airports
Route: +SLI V8 POXKU V363 POM
File this flight plan on PilotEdge
Remarks: TEC route CSTP12
Altitude:
(Current/Filed)
3,000ft
Speed:
(Current/Filed)
115kts
Departed: 10-May-19 06:34 PM
Arrived: 10-May-19 07:09 PM
Distance/Time
Traveled:
25nm/0:35
Distance/Time
To Go:
Arrived

Flight Plot

Page will automatically refresh every two minutes.


Map Options




Map Legend


Flown Route
Filed Route
Departure Airport
Arrival Airport
Navaid (VOR, NDB)
Fix

Horizontal Profiles

Position Reports

Time Latitude Longitude Heading Altitude Ground
Speed
10-May-19 18:04 33.812789 -118.152430 349 63ft 0kts
10-May-19 18:05 33.812794 -118.152431 349 63ft 0kts
10-May-19 18:06 33.812798 -118.152432 349 63ft 0kts
10-May-19 18:07 33.812803 -118.152433 349 63ft 0kts
10-May-19 18:08 33.812809 -118.152434 349 63ft 0kts
10-May-19 18:09 33.812814 -118.152435 349 63ft 0kts
10-May-19 18:10 33.812819 -118.152436 349 63ft 0kts
10-May-19 18:11 33.812824 -118.152438 349 63ft 0kts
10-May-19 18:12 33.812829 -118.152439 349 63ft 0kts
10-May-19 18:13 33.812834 -118.152440 349 63ft 0kts
10-May-19 18:14 33.812839 -118.152441 349 63ft 0kts
10-May-19 18:15 33.812844 -118.152442 349 63ft 0kts
10-May-19 18:16 33.812849 -118.152443 349 63ft 0kts
10-May-19 18:17 33.812854 -118.152445 349 63ft 0kts
10-May-19 18:18 33.812859 -118.152446 349 63ft 0kts
10-May-19 18:19 33.812864 -118.152447 349 63ft 0kts
10-May-19 18:20 33.813463 -118.152585 349 63ft 6kts
10-May-19 18:21 33.812824 -118.152472 341 63ft 0kts
10-May-19 18:22 33.812827 -118.152473 341 63ft 0kts
10-May-19 18:23 33.812833 -118.152475 341 63ft 0kts
10-May-19 18:24 33.812839 -118.152478 341 63ft 0kts
10-May-19 18:25 33.812845 -118.152480 341 63ft 0kts
10-May-19 18:26 33.812849 -118.152482 341 63ft 0kts
10-May-19 18:27 33.812854 -118.152484 341 63ft 0kts
10-May-19 18:28 33.813031 -118.149406 89 63ft 16kts
10-May-19 18:29 33.813034 -118.148796 89 63ft 0kts
10-May-19 18:30 33.813352 -118.148299 343 63ft 0kts
10-May-19 18:32 33.813355 -118.148300 343 63ft 0kts
10-May-19 18:33 33.813813 -118.148852 271 63ft 21kts
10-May-19 18:34 33.814860 -118.171598 281 911ft 78kts
10-May-19 18:35 33.823060 -118.203618 284 1625ft 113kts
10-May-19 18:36 33.832279 -118.240687 284 2326ft 116kts
10-May-19 18:37 33.841544 -118.277749 283 3015ft 114kts
10-May-19 18:38 33.831208 -118.302510 157 3307ft 129kts
10-May-19 18:39 33.818812 -118.262056 103 3039ft 135kts
10-May-19 18:40 33.819261 -118.216974 82 3264ft 126kts
10-May-19 18:41 33.823579 -118.176725 85 3745ft 116kts
10-May-19 18:42 33.826768 -118.136512 86 4280ft 124kts
10-May-19 18:43 33.829940 -118.095102 85 4792ft 124kts
10-May-19 18:44 33.833076 -118.054375 85 4990ft 119kts
10-May-19 18:45 33.836151 -118.014397 85 4993ft 120kts
10-May-19 18:46 33.839245 -117.974093 85 4991ft 120kts
10-May-19 18:47 33.842311 -117.933987 85 4992ft 120kts
10-May-19 18:48 33.845365 -117.893826 86 4993ft 119kts
10-May-19 18:49 33.848367 -117.854147 86 4994ft 119kts
10-May-19 18:50 33.851327 -117.814453 86 4995ft 119kts
10-May-19 18:51 33.863070 -117.782587 11 4999ft 120kts
10-May-19 18:52 33.896502 -117.782275 18 4987ft 121kts
10-May-19 18:52 33.918249 -117.761437 40 5002ft 120kts
10-May-19 18:54 33.948140 -117.730986 40 5005ft 120kts
10-May-19 18:54 33.969586 -117.709150 39 5005ft 120kts
10-May-19 18:56 33.991747 -117.673359 93 4814ft 119kts
10-May-19 18:57 33.990988 -117.634476 92 4309ft 115kts
10-May-19 18:57 33.990538 -117.602630 92 4034ft 106kts
10-May-19 18:59 34.013274 -117.583639 3 3988ft 103kts
10-May-19 18:59 34.036370 -117.581633 2 3997ft 97kts
10-May-19 19:01 34.063346 -117.595516 313 3815ft 98kts
10-May-19 19:01 34.079375 -117.614282 307 3374ft 94kts
10-May-19 19:02 34.085669 -117.640077 270 3202ft 70kts
10-May-19 19:03 34.086140 -117.667467 267 3211ft 94kts
10-May-19 19:04 34.086604 -117.698141 268 2740ft 87kts
10-May-19 19:05 34.088403 -117.727593 273 2047ft 90kts
10-May-19 19:06 34.090025 -117.756253 271 1502ft 72kts
10-May-19 19:07 34.091049 -117.776419 271 1035ft 46kts
10-May-19 19:08 34.090913 -117.781356 223 1014ft 0kts
10-May-19 19:09 34.090580 -117.783358 267 1014ft 7kts
10-May-19 19:10 34.090324 -117.783564 350 1014ft 0kts
10-May-19 19:11 34.090324 -117.783564 350 1014ft 0kts
10-May-19 19:12 34.090324 -117.783564 350 1014ft 0kts

Navigation Log

Ident Type
Flight plan parsing failed, navigation log unavailable